sensor_id;sensor_type;location;lat;lon;timestamp;temperature;humidity
67273;DHT22;54190;49.770;9.250;2023-10-19T00:02:09;10.50;99.90
67273;DHT22;54190;49.770;9.250;2023-10-19T00:04:40;10.50;99.90
67273;DHT22;54190;49.770;9.250;2023-10-19T00:07:06;10.50;99.90
67273;DHT22;54190;49.770;9.250;2023-10-19T00:09:34;10.50;99.90
67273;DHT22;54190;49.770;9.250;2023-10-19T00:12:04;10.50;99.90
67273;DHT22;54190;49.770;9.250;2023-10-19T00:14:31;10.50;99.90
67273;DHT22;54190;49.770;9.250;2023-10-19T00:16:58;10.40;99.90
67273;DHT22;54190;49.770;9.250;2023-10-19T00:19:26;10.50;99.90
67273;DHT22;54190;49.770;9.250;2023-10-19T00:21:56;10.50;99.90
67273;DHT22;54190;49.770;9.250;2023-10-19T00:24:27;10.50;99.90
67273;DHT22;54190;49.770;9.250;2023-10-19T00:26:53;10.50;99.90
67273;DHT22;54190;49.770;9.250;2023-10-19T00:29:20;10.50;99.90
67273;DHT22;54190;49.770;9.250;2023-10-19T00:31:57;10.50;99.90
67273;DHT22;54190;49.770;9.250;2023-10-19T00:34:24;10.50;99.90
67273;DHT22;54190;49.770;9.250;2023-10-19T00:36:51;10.40;99.90
67273;DHT22;54190;49.770;9.250;2023-10-19T00:39:17;10.50;99.90
67273;DHT22;54190;49.770;9.250;2023-10-19T00:41:50;10.40;99.90
67273;DHT22;54190;49.770;9.250;2023-10-19T00:44:16;10.50;99.90
67273;DHT22;54190;49.770;9.250;2023-10-19T00:46:48;10.50;99.90
67273;DHT22;54190;49.770;9.250;2023-10-19T00:49:37;10.50;99.90
67273;DHT22;54190;49.770;9.250;2023-10-19T00:52:05;10.40;99.90
67273;DHT22;54190;49.770;9.250;2023-10-19T00:54:43;10.40;99.90
67273;DHT22;54190;49.770;9.250;2023-10-19T00:57:12;10.50;99.90
67273;DHT22;54190;49.770;9.250;2023-10-19T00:59:38;10.40;99.90
67273;DHT22;54190;49.770;9.250;2023-10-19T01:02:17;10.40;99.90
67273;DHT22;54190;49.770;9.250;2023-10-19T01:04:45;10.40;99.90
67273;DHT22;54190;49.770;9.250;2023-10-19T01:07:16;10.40;99.90
67273;DHT22;54190;49.770;9.250;2023-10-19T01:09:47;10.50;99.90
67273;DHT22;54190;49.770;9.250;2023-10-19T01:12:13;10.50;99.90
67273;DHT22;54190;49.770;9.250;2023-10-19T01:15:21;10.60;99.90
67273;DHT22;54190;49.770;9.250;2023-10-19T01:17:53;10.50;99.90
67273;DHT22;54190;49.770;9.250;2023-10-19T01:20:23;10.60;99.90
67273;DHT22;54190;49.770;9.250;2023-10-19T01:25:44;10.60;99.90
67273;DHT22;54190;49.770;9.250;2023-10-19T01:30:54;10.70;99.90
67273;DHT22;54190;49.770;9.250;2023-10-19T01:33:21;10.70;99.90
67273;DHT22;54190;49.770;9.250;2023-10-19T01:35:49;10.80;99.90
67273;DHT22;54190;49.770;9.250;2023-10-19T01:38:33;10.80;99.90
67273;DHT22;54190;49.770;9.250;2023-10-19T01:41:00;10.80;99.90
67273;DHT22;54190;49.770;9.250;2023-10-19T01:43:27;10.90;99.90
67273;DHT22;54190;49.770;9.250;2023-10-19T01:46:00;10.90;99.90
67273;DHT22;54190;49.770;9.250;2023-10-19T01:48:30;11.00;99.90
67273;DHT22;54190;49.770;9.250;2023-10-19T01:51:04;11.00;99.90
67273;DHT22;54190;49.770;9.250;2023-10-19T01:53:34;11.00;99.90
67273;DHT22;54190;49.770;9.250;2023-10-19T01:56:08;11.10;99.90
67273;DHT22;54190;49.770;9.250;2023-10-19T01:58:39;11.10;99.90
67273;DHT22;54190;49.770;9.250;2023-10-19T02:01:06;11.10;99.90
67273;DHT22;54190;49.770;9.250;2023-10-19T02:03:38;11.20;99.90
67273;DHT22;54190;49.770;9.250;2023-10-19T02:06:14;11.20;99.90
67273;DHT22;54190;49.770;9.250;2023-10-19T02:08:58;11.20;99.90
67273;DHT22;54190;49.770;9.250;2023-10-19T02:11:27;11.30;99.90
67273;DHT22;54190;49.770;9.250;2023-10-19T02:13:55;11.30;99.90
67273;DHT22;54190;49.770;9.250;2023-10-19T02:16:26;11.40;99.90
67273;DHT22;54190;49.770;9.250;2023-10-19T02:18:55;11.40;99.90
67273;DHT22;54190;49.770;9.250;2023-10-19T02:21:20;11.50;99.90
67273;DHT22;54190;49.770;9.250;2023-10-19T02:23:55;11.50;99.90
67273;DHT22;54190;49.770;9.250;2023-10-19T02:26:23;11.50;99.90
67273;DHT22;54190;49.770;9.250;2023-10-19T02:28:51;11.50;99.90
67273;DHT22;54190;49.770;9.250;2023-10-19T02:31:17;11.50;99.90
67273;DHT22;54190;49.770;9.250;2023-10-19T02:33:51;11.50;99.90
67273;DHT22;54190;49.770;9.250;2023-10-19T02:36:27;11.60;99.90
67273;DHT22;54190;49.770;9.250;2023-10-19T02:38:57;11.60;99.90
67273;DHT22;54190;49.770;9.250;2023-10-19T02:41:28;11.60;99.90
67273;DHT22;54190;49.770;9.250;2023-10-19T02:43:55;11.60;99.90
67273;DHT22;54190;49.770;9.250;2023-10-19T02:46:31;11.60;99.90
67273;DHT22;54190;49.770;9.250;2023-10-19T02:49:06;11.60;99.90
67273;DHT22;54190;49.770;9.250;2023-10-19T02:51:38;11.60;99.90
67273;DHT22;54190;49.770;9.250;2023-10-19T02:54:04;11.60;99.90
67273;DHT22;54190;49.770;9.250;2023-10-19T02:56:35;11.70;99.90
67273;DHT22;54190;49.770;9.250;2023-10-19T02:59:02;11.70;99.90
67273;DHT22;54190;49.770;9.250;2023-10-19T03:01:30;11.70;99.90
67273;DHT22;54190;49.770;9.250;2023-10-19T03:04:00;11.70;99.90
67273;DHT22;54190;49.770;9.250;2023-10-19T03:06:30;11.70;99.90
67273;DHT22;54190;49.770;9.250;2023-10-19T03:09:04;11.70;99.90
67273;DHT22;54190;49.770;9.250;2023-10-19T03:11:30;11.70;99.90
67273;DHT22;54190;49.770;9.250;2023-10-19T03:14:00;11.70;99.90
67273;DHT22;54190;49.770;9.250;2023-10-19T03:16:30;11.70;99.90
67273;DHT22;54190;49.770;9.250;2023-10-19T03:18:56;11.80;99.90
67273;DHT22;54190;49.770;9.250;2023-10-19T03:21:22;11.70;99.90
67273;DHT22;54190;49.770;9.250;2023-10-19T03:23:55;11.80;99.90
67273;DHT22;54190;49.770;9.250;2023-10-19T03:26:27;11.80;99.90
67273;DHT22;54190;49.770;9.250;2023-10-19T03:28:57;11.80;99.90
67273;DHT22;54190;49.770;9.250;2023-10-19T03:31:27;11.80;99.90
67273;DHT22;54190;49.770;9.250;2023-10-19T03:33:53;11.80;99.90
67273;DHT22;54190;49.770;9.250;2023-10-19T03:36:25;11.80;99.90
67273;DHT22;54190;49.770;9.250;2023-10-19T03:38:52;11.80;99.90
67273;DHT22;54190;49.770;9.250;2023-10-19T03:41:19;11.80;99.90
67273;DHT22;54190;49.770;9.250;2023-10-19T03:43:50;11.80;99.90
67273;DHT22;54190;49.770;9.250;2023-10-19T03:46:18;11.80;99.90
67273;DHT22;54190;49.770;9.250;2023-10-19T03:49:00;11.80;99.90
67273;DHT22;54190;49.770;9.250;2023-10-19T03:51:45;11.80;99.90
67273;DHT22;54190;49.770;9.250;2023-10-19T03:54:25;11.80;99.90
67273;DHT22;54190;49.770;9.250;2023-10-19T03:56:53;11.80;99.90
67273;DHT22;54190;49.770;9.250;2023-10-19T03:59:19;11.80;99.90
67273;DHT22;54190;49.770;9.250;2023-10-19T04:01:48;11.80;99.90
67273;DHT22;54190;49.770;9.250;2023-10-19T04:04:14;11.80;99.90
67273;DHT22;54190;49.770;9.250;2023-10-19T04:06:41;11.80;99.90
67273;DHT22;54190;49.770;9.250;2023-10-19T04:09:13;11.80;99.90
67273;DHT22;54190;49.770;9.250;2023-10-19T04:11:42;11.80;99.90
67273;DHT22;54190;49.770;9.250;2023-10-19T04:14:15;11.80;99.90
67273;DHT22;54190;49.770;9.250;2023-10-19T04:16:43;11.80;99.90
67273;DHT22;54190;49.770;9.250;2023-10-19T04:19:13;11.80;99.90
67273;DHT22;54190;49.770;9.250;2023-10-19T04:21:40;11.80;99.90
67273;DHT22;54190;49.770;9.250;2023-10-19T04:24:10;11.80;99.90
67273;DHT22;54190;49.770;9.250;2023-10-19T04:26:39;11.80;99.90
67273;DHT22;54190;49.770;9.250;2023-10-19T04:29:06;11.80;99.90
67273;DHT22;54190;49.770;9.250;2023-10-19T04:31:43;11.80;99.90
67273;DHT22;54190;49.770;9.250;2023-10-19T04:34:18;11.90;99.90
67273;DHT22;54190;49.770;9.250;2023-10-19T04:36:47;11.90;99.90
67273;DHT22;54190;49.770;9.250;2023-10-19T04:39:13;11.90;99.90
67273;DHT22;54190;49.770;9.250;2023-10-19T04:41:42;11.80;99.90
67273;DHT22;54190;49.770;9.250;2023-10-19T04:44:07;11.90;99.90
67273;DHT22;54190;49.770;9.250;2023-10-19T04:46:36;11.90;99.90
67273;DHT22;54190;49.770;9.250;2023-10-19T04:49:03;11.80;99.90
67273;DHT22;54190;49.770;9.250;2023-10-19T04:51:31;11.80;99.90
67273;DHT22;54190;49.770;9.250;2023-10-19T04:53:59;11.80;99.90
67273;DHT22;54190;49.770;9.250;2023-10-19T04:56:24;11.80;99.90
67273;DHT22;54190;49.770;9.250;2023-10-19T04:58:50;11.80;99.90
67273;DHT22;54190;49.770;9.250;2023-10-19T05:01:15;11.80;99.90
67273;DHT22;54190;49.770;9.250;2023-10-19T05:03:41;11.80;99.90
67273;DHT22;54190;49.770;9.250;2023-10-19T05:06:07;11.80;99.90
67273;DHT22;54190;49.770;9.250;2023-10-19T05:08:35;11.80;99.90
67273;DHT22;54190;49.770;9.250;2023-10-19T05:11:02;11.80;99.90
67273;DHT22;54190;49.770;9.250;2023-10-19T05:13:30;11.70;99.90
67273;DHT22;54190;49.770;9.250;2023-10-19T05:15:56;11.60;99.90
67273;DHT22;54190;49.770;9.250;2023-10-19T05:18:25;11.60;99.90
67273;DHT22;54190;49.770;9.250;2023-10-19T05:20:52;11.50;99.90
67273;DHT22;54190;49.770;9.250;2023-10-19T05:23:22;11.60;99.90
67273;DHT22;54190;49.770;9.250;2023-10-19T05:25:52;11.50;99.90
67273;DHT22;54190;49.770;9.250;2023-10-19T05:28:22;11.50;99.90
67273;DHT22;54190;49.770;9.250;2023-10-19T05:30:47;11.50;99.90
67273;DHT22;54190;49.770;9.250;2023-10-19T05:33:14;11.50;99.90
67273;DHT22;54190;49.770;9.250;2023-10-19T05:35:40;11.50;99.90
67273;DHT22;54190;49.770;9.250;2023-10-19T05:38:09;11.40;99.90
67273;DHT22;54190;49.770;9.250;2023-10-19T05:40:35;11.40;99.90
67273;DHT22;54190;49.770;9.250;2023-10-19T05:43:02;11.30;99.90
67273;DHT22;54190;49.770;9.250;2023-10-19T05:45:28;11.30;99.90
67273;DHT22;54190;49.770;9.250;2023-10-19T05:47:57;11.30;99.90
67273;DHT22;54190;49.770;9.250;2023-10-19T05:50:23;11.30;99.90
67273;DHT22;54190;49.770;9.250;2023-10-19T05:52:49;11.30;99.90
67273;DHT22;54190;49.770;9.250;2023-10-19T05:55:15;11.30;99.90
67273;DHT22;54190;49.770;9.250;2023-10-19T05:57:41;11.20;99.90
67273;DHT22;54190;49.770;9.250;2023-10-19T06:00:11;11.30;99.90
67273;DHT22;54190;49.770;9.250;2023-10-19T06:02:40;11.20;99.90
67273;DHT22;54190;49.770;9.250;2023-10-19T06:05:06;11.20;99.90
67273;DHT22;54190;49.770;9.250;2023-10-19T06:07:32;11.20;99.90
67273;DHT22;54190;49.770;9.250;2023-10-19T06:09:58;11.20;99.90
67273;DHT22;54190;49.770;9.250;2023-10-19T06:12:26;11.10;99.90
67273;DHT22;54190;49.770;9.250;2023-10-19T06:14:51;11.10;99.90
67273;DHT22;54190;49.770;9.250;2023-10-19T06:17:17;11.10;99.90
67273;DHT22;54190;49.770;9.250;2023-10-19T06:19:44;11.10;99.90
67273;DHT22;54190;49.770;9.250;2023-10-19T06:22:11;11.10;99.90
67273;DHT22;54190;49.770;9.250;2023-10-19T06:24:37;11.00;99.90
67273;DHT22;54190;49.770;9.250;2023-10-19T06:27:03;11.00;99.90
67273;DHT22;54190;49.770;9.250;2023-10-19T06:29:29;10.90;99.90
67273;DHT22;54190;49.770;9.250;2023-10-19T06:31:55;10.90;99.90
67273;DHT22;54190;49.770;9.250;2023-10-19T06:34:20;10.90;99.90
67273;DHT22;54190;49.770;9.250;2023-10-19T06:36:46;10.90;99.90
67273;DHT22;54190;49.770;9.250;2023-10-19T06:39:12;10.90;99.90
67273;DHT22;54190;49.770;9.250;2023-10-19T06:41:39;10.90;99.90
67273;DHT22;54190;49.770;9.250;2023-10-19T06:44:05;10.90;99.90
67273;DHT22;54190;49.770;9.250;2023-10-19T06:46:31;10.90;99.90
67273;DHT22;54190;49.770;9.250;2023-10-19T06:48:57;10.90;99.90
67273;DHT22;54190;49.770;9.250;2023-10-19T06:51:26;11.00;99.90
67273;DHT22;54190;49.770;9.250;2023-10-19T06:53:52;11.00;99.90
67273;DHT22;54190;49.770;9.250;2023-10-19T06:56:18;11.00;99.90
67273;DHT22;54190;49.770;9.250;2023-10-19T06:58:44;10.90;99.90
67273;DHT22;54190;49.770;9.250;2023-10-19T07:01:09;10.90;99.90
67273;DHT22;54190;49.770;9.250;2023-10-19T07:03:36;10.80;99.90
67273;DHT22;54190;49.770;9.250;2023-10-19T07:06:03;10.70;99.90
67273;DHT22;54190;49.770;9.250;2023-10-19T07:08:29;10.70;99.90
67273;DHT22;54190;49.770;9.250;2023-10-19T07:10:55;10.80;99.90
67273;DHT22;54190;49.770;9.250;2023-10-19T07:13:21;10.80;99.90
67273;DHT22;54190;49.770;9.250;2023-10-19T07:15:48;10.90;99.90
67273;DHT22;54190;49.770;9.250;2023-10-19T07:18:17;10.90;99.90
67273;DHT22;54190;49.770;9.250;2023-10-19T07:20:43;11.00;99.90
67273;DHT22;54190;49.770;9.250;2023-10-19T07:23:08;11.00;99.90
67273;DHT22;54190;49.770;9.250;2023-10-19T07:25:45;11.10;99.90
67273;DHT22;54190;49.770;9.250;2023-10-19T07:28:13;11.10;99.90
67273;DHT22;54190;49.770;9.250;2023-10-19T07:30:40;11.10;99.90
67273;DHT22;54190;49.770;9.250;2023-10-19T07:33:10;11.20;99.90
67273;DHT22;54190;49.770;9.250;2023-10-19T07:35:37;11.20;99.90
67273;DHT22;54190;49.770;9.250;2023-10-19T07:38:08;11.20;99.90
67273;DHT22;54190;49.770;9.250;2023-10-19T07:40:34;11.20;99.90
67273;DHT22;54190;49.770;9.250;2023-10-19T07:43:01;11.30;99.90
67273;DHT22;54190;49.770;9.250;2023-10-19T07:45:27;11.30;99.90
67273;DHT22;54190;49.770;9.250;2023-10-19T07:47:53;11.40;99.90
67273;DHT22;54190;49.770;9.250;2023-10-19T07:50:19;11.40;99.90
67273;DHT22;54190;49.770;9.250;2023-10-19T07:52:46;11.40;99.90
67273;DHT22;54190;49.770;9.250;2023-10-19T07:55:16;11.40;99.90
67273;DHT22;54190;49.770;9.250;2023-10-19T07:57:42;11.50;99.90
67273;DHT22;54190;49.770;9.250;2023-10-19T08:00:09;11.50;99.90
67273;DHT22;54190;49.770;9.250;2023-10-19T08:02:38;11.50;99.90
67273;DHT22;54190;49.770;9.250;2023-10-19T08:05:07;11.60;99.90
67273;DHT22;54190;49.770;9.250;2023-10-19T08:07:33;11.60;99.90
67273;DHT22;54190;49.770;9.250;2023-10-19T08:10:02;11.70;99.90
67273;DHT22;54190;49.770;9.250;2023-10-19T08:12:31;11.70;99.90
67273;DHT22;54190;49.770;9.250;2023-10-19T08:14:58;11.80;99.90
67273;DHT22;54190;49.770;9.250;2023-10-19T08:17:25;11.80;99.90
67273;DHT22;54190;49.770;9.250;2023-10-19T08:19:50;11.90;99.90
67273;DHT22;54190;49.770;9.250;2023-10-19T08:22:16;12.00;99.90
67273;DHT22;54190;49.770;9.250;2023-10-19T08:24:42;12.00;99.90
67273;DHT22;54190;49.770;9.250;2023-10-19T08:27:14;12.10;99.90
67273;DHT22;54190;49.770;9.250;2023-10-19T08:29:40;12.20;99.90
67273;DHT22;54190;49.770;9.250;2023-10-19T08:32:05;12.20;99.90
67273;DHT22;54190;49.770;9.250;2023-10-19T08:34:35;12.30;99.90
67273;DHT22;54190;49.770;9.250;2023-10-19T08:37:02;12.40;99.90
67273;DHT22;54190;49.770;9.250;2023-10-19T08:39:29;12.50;99.90
67273;DHT22;54190;49.770;9.250;2023-10-19T08:42:05;12.50;99.90
67273;DHT22;54190;49.770;9.250;2023-10-19T08:44:31;12.50;99.90
67273;DHT22;54190;49.770;9.250;2023-10-19T08:46:57;12.60;99.90
67273;DHT22;54190;49.770;9.250;2023-10-19T08:49:25;12.60;99.90
67273;DHT22;54190;49.770;9.250;2023-10-19T08:51:52;12.70;99.90
67273;DHT22;54190;49.770;9.250;2023-10-19T08:54:19;12.70;99.90
67273;DHT22;54190;49.770;9.250;2023-10-19T08:56:45;12.80;99.90
67273;DHT22;54190;49.770;9.250;2023-10-19T08:59:13;12.80;99.90
67273;DHT22;54190;49.770;9.250;2023-10-19T09:01:41;12.80;99.90
67273;DHT22;54190;49.770;9.250;2023-10-19T09:04:11;12.80;99.90
67273;DHT22;54190;49.770;9.250;2023-10-19T09:06:40;12.90;99.90
67273;DHT22;54190;49.770;9.250;2023-10-19T09:09:09;12.90;99.90
67273;DHT22;54190;49.770;9.250;2023-10-19T09:11:39;13.00;99.90
67273;DHT22;54190;49.770;9.250;2023-10-19T09:14:04;13.00;99.90
67273;DHT22;54190;49.770;9.250;2023-10-19T09:16:31;13.00;99.90
67273;DHT22;54190;49.770;9.250;2023-10-19T09:18:57;13.10;99.90
67273;DHT22;54190;49.770;9.250;2023-10-19T09:21:23;13.10;99.90
67273;DHT22;54190;49.770;9.250;2023-10-19T09:23:55;13.20;99.90
67273;DHT22;54190;49.770;9.250;2023-10-19T09:26:21;13.30;99.90
67273;DHT22;54190;49.770;9.250;2023-10-19T09:28:50;13.30;99.90
67273;DHT22;54190;49.770;9.250;2023-10-19T09:31:16;13.50;99.90
67273;DHT22;54190;49.770;9.250;2023-10-19T09:33:44;13.60;99.90
67273;DHT22;54190;49.770;9.250;2023-10-19T09:36:11;13.70;99.90
67273;DHT22;54190;49.770;9.250;2023-10-19T09:41:15;13.80;99.90
67273;DHT22;54190;49.770;9.250;2023-10-19T09:43:46;13.70;99.90
67273;DHT22;54190;49.770;9.250;2023-10-19T09:48:47;13.70;99.90
67273;DHT22;54190;49.770;9.250;2023-10-19T09:51:14;13.80;99.90
67273;DHT22;54190;49.770;9.250;2023-10-19T09:53:44;13.80;99.90
67273;DHT22;54190;49.770;9.250;2023-10-19T09:56:21;13.80;99.90
67273;DHT22;54190;49.770;9.250;2023-10-19T09:58:52;13.90;99.90
67273;DHT22;54190;49.770;9.250;2023-10-19T10:01:18;14.00;99.90
67273;DHT22;54190;49.770;9.250;2023-10-19T10:03:53;14.10;99.90
67273;DHT22;54190;49.770;9.250;2023-10-19T10:06:30;14.20;99.90
67273;DHT22;54190;49.770;9.250;2023-10-19T10:08:57;14.20;99.90
67273;DHT22;54190;49.770;9.250;2023-10-19T10:11:25;14.30;99.90
67273;DHT22;54190;49.770;9.250;2023-10-19T10:13:56;14.30;99.90
67273;DHT22;54190;49.770;9.250;2023-10-19T10:16:26;14.40;99.90
67273;DHT22;54190;49.770;9.250;2023-10-19T10:18:59;14.40;99.90
67273;DHT22;54190;49.770;9.250;2023-10-19T10:21:27;14.50;99.90
67273;DHT22;54190;49.770;9.250;2023-10-19T10:23:54;14.50;99.90
67273;DHT22;54190;49.770;9.250;2023-10-19T10:26:25;14.60;99.90
67273;DHT22;54190;49.770;9.250;2023-10-19T10:29:17;14.70;99.90
67273;DHT22;54190;49.770;9.250;2023-10-19T10:31:47;14.90;99.90
67273;DHT22;54190;49.770;9.250;2023-10-19T10:37:14;15.30;99.90
67273;DHT22;54190;49.770;9.250;2023-10-19T10:39:40;15.40;99.90
67273;DHT22;54190;49.770;9.250;2023-10-19T10:42:08;15.50;99.90
67273;DHT22;54190;49.770;9.250;2023-10-19T10:44:44;15.60;99.90
67273;DHT22;54190;49.770;9.250;2023-10-19T10:47:21;15.80;99.90
67273;DHT22;54190;49.770;9.250;2023-10-19T10:49:50;16.00;99.90
67273;DHT22;54190;49.770;9.250;2023-10-19T10:52:36;16.20;99.90
67273;DHT22;54190;49.770;9.250;2023-10-19T10:55:13;16.40;99.90
67273;DHT22;54190;49.770;9.250;2023-10-19T10:57:41;16.50;99.90
67273;DHT22;54190;49.770;9.250;2023-10-19T11:02:42;16.70;99.90
67273;DHT22;54190;49.770;9.250;2023-10-19T11:05:15;16.80;99.90
67273;DHT22;54190;49.770;9.250;2023-10-19T11:08:02;16.90;99.90
67273;DHT22;54190;49.770;9.250;2023-10-19T11:10:29;16.90;99.90
67273;DHT22;54190;49.770;9.250;2023-10-19T11:13:08;16.90;99.90
67273;DHT22;54190;49.770;9.250;2023-10-19T11:15:35;16.90;99.90
67273;DHT22;54190;49.770;9.250;2023-10-19T11:18:02;16.90;99.90
67273;DHT22;54190;49.770;9.250;2023-10-19T11:20:28;16.90;99.90
67273;DHT22;54190;49.770;9.250;2023-10-19T11:22:57;16.90;99.90
67273;DHT22;54190;49.770;9.250;2023-10-19T11:25:24;16.90;99.90
67273;DHT22;54190;49.770;9.250;2023-10-19T11:27:49;17.10;99.90
67273;DHT22;54190;49.770;9.250;2023-10-19T11:32:50;17.30;99.90
67273;DHT22;54190;49.770;9.250;2023-10-19T11:35:19;17.50;99.90
67273;DHT22;54190;49.770;9.250;2023-10-19T11:37:49;17.50;99.90
67273;DHT22;54190;49.770;9.250;2023-10-19T11:40:16;17.50;99.90
67273;DHT22;54190;49.770;9.250;2023-10-19T11:42:42;17.50;99.90
67273;DHT22;54190;49.770;9.250;2023-10-19T11:45:08;17.50;99.90
67273;DHT22;54190;49.770;9.250;2023-10-19T11:47:34;17.60;99.90
67273;DHT22;54190;49.770;9.250;2023-10-19T11:50:00;17.60;99.90
67273;DHT22;54190;49.770;9.250;2023-10-19T11:52:26;17.70;99.90
67273;DHT22;54190;49.770;9.250;2023-10-19T11:54:53;17.70;99.90
67273;DHT22;54190;49.770;9.250;2023-10-19T11:57:19;17.70;99.90
67273;DHT22;54190;49.770;9.250;2023-10-19T11:59:45;17.70;99.90
67273;DHT22;54190;49.770;9.250;2023-10-19T12:02:10;17.80;99.90
67273;DHT22;54190;49.770;9.250;2023-10-19T12:04:37;17.80;99.90
67273;DHT22;54190;49.770;9.250;2023-10-19T12:07:02;17.80;99.90
67273;DHT22;54190;49.770;9.250;2023-10-19T12:09:29;17.80;99.90
67273;DHT22;54190;49.770;9.250;2023-10-19T12:11:55;17.70;99.90
67273;DHT22;54190;49.770;9.250;2023-10-19T12:14:22;17.70;99.90
67273;DHT22;54190;49.770;9.250;2023-10-19T12:16:48;17.80;99.90
67273;DHT22;54190;49.770;9.250;2023-10-19T12:19:14;17.80;99.90
67273;DHT22;54190;49.770;9.250;2023-10-19T12:21:41;17.80;99.90
67273;DHT22;54190;49.770;9.250;2023-10-19T12:24:08;17.80;99.90
67273;DHT22;54190;49.770;9.250;2023-10-19T12:26:33;17.80;99.90
67273;DHT22;54190;49.770;9.250;2023-10-19T12:28:59;17.70;99.90
67273;DHT22;54190;49.770;9.250;2023-10-19T12:31:25;17.50;99.90
67273;DHT22;54190;49.770;9.250;2023-10-19T12:33:51;17.40;99.90
67273;DHT22;54190;49.770;9.250;2023-10-19T12:36:16;17.30;99.90
67273;DHT22;54190;49.770;9.250;2023-10-19T12:38:57;17.20;99.90
67273;DHT22;54190;49.770;9.250;2023-10-19T12:41:23;17.10;99.90
67273;DHT22;54190;49.770;9.250;2023-10-19T12:43:50;17.00;99.90
67273;DHT22;54190;49.770;9.250;2023-10-19T12:46:17;17.00;99.90
67273;DHT22;54190;49.770;9.250;2023-10-19T12:48:44;17.00;99.90
67273;DHT22;54190;49.770;9.250;2023-10-19T12:51:12;17.00;99.90
67273;DHT22;54190;49.770;9.250;2023-10-19T12:53:39;17.00;99.90
67273;DHT22;54190;49.770;9.250;2023-10-19T12:56:07;17.10;99.90
67273;DHT22;54190;49.770;9.250;2023-10-19T12:58:35;17.10;99.90
67273;DHT22;54190;49.770;9.250;2023-10-19T13:01:02;17.20;99.90
67273;DHT22;54190;49.770;9.250;2023-10-19T13:03:30;17.20;99.90
67273;DHT22;54190;49.770;9.250;2023-10-19T13:05:58;17.20;99.90
67273;DHT22;54190;49.770;9.250;2023-10-19T13:08:24;17.20;99.90
67273;DHT22;54190;49.770;9.250;2023-10-19T13:10:53;17.20;99.90
67273;DHT22;54190;49.770;9.250;2023-10-19T13:13:20;17.20;99.90
67273;DHT22;54190;49.770;9.250;2023-10-19T13:15:49;17.10;99.90
67273;DHT22;54190;49.770;9.250;2023-10-19T13:18:15;17.10;99.90
67273;DHT22;54190;49.770;9.250;2023-10-19T13:20:53;17.10;99.90
67273;DHT22;54190;49.770;9.250;2023-10-19T13:23:20;17.10;99.90
67273;DHT22;54190;49.770;9.250;2023-10-19T13:25:49;17.10;99.90
67273;DHT22;54190;49.770;9.250;2023-10-19T13:28:18;17.00;99.90
67273;DHT22;54190;49.770;9.250;2023-10-19T13:30:52;17.00;99.90
67273;DHT22;54190;49.770;9.250;2023-10-19T13:33:22;17.00;99.90
67273;DHT22;54190;49.770;9.250;2023-10-19T13:35:47;17.00;99.90
67273;DHT22;54190;49.770;9.250;2023-10-19T13:38:14;16.90;99.90
67273;DHT22;54190;49.770;9.250;2023-10-19T13:40:41;16.90;99.90
67273;DHT22;54190;49.770;9.250;2023-10-19T13:43:09;16.80;99.90
67273;DHT22;54190;49.770;9.250;2023-10-19T13:45:39;16.80;99.90
67273;DHT22;54190;49.770;9.250;2023-10-19T13:48:07;16.80;99.90
67273;DHT22;54190;49.770;9.250;2023-10-19T13:50:34;16.80;99.90
67273;DHT22;54190;49.770;9.250;2023-10-19T13:53:01;16.70;99.90
67273;DHT22;54190;49.770;9.250;2023-10-19T13:55:28;16.60;99.90
67273;DHT22;54190;49.770;9.250;2023-10-19T13:57:54;16.50;99.90
67273;DHT22;54190;49.770;9.250;2023-10-19T14:00:21;16.50;99.90
67273;DHT22;54190;49.770;9.250;2023-10-19T14:02:56;16.40;99.90
67273;DHT22;54190;49.770;9.250;2023-10-19T14:05:23;16.50;99.90
67273;DHT22;54190;49.770;9.250;2023-10-19T14:07:50;16.50;99.90
67273;DHT22;54190;49.770;9.250;2023-10-19T14:10:18;16.50;99.90
67273;DHT22;54190;49.770;9.250;2023-10-19T14:12:47;16.60;99.90
67273;DHT22;54190;49.770;9.250;2023-10-19T14:15:15;16.60;99.90
67273;DHT22;54190;49.770;9.250;2023-10-19T14:17:43;16.50;99.90
67273;DHT22;54190;49.770;9.250;2023-10-19T14:20:10;16.50;99.90
67273;DHT22;54190;49.770;9.250;2023-10-19T14:22:40;16.50;99.90
67273;DHT22;54190;49.770;9.250;2023-10-19T14:25:07;16.50;99.90
67273;DHT22;54190;49.770;9.250;2023-10-19T14:27:40;16.50;99.90
67273;DHT22;54190;49.770;9.250;2023-10-19T14:30:11;16.50;99.90
67273;DHT22;54190;49.770;9.250;2023-10-19T14:32:41;16.60;99.90
67273;DHT22;54190;49.770;9.250;2023-10-19T14:35:13;16.60;99.90
67273;DHT22;54190;49.770;9.250;2023-10-19T14:37:47;16.60;99.90
67273;DHT22;54190;49.770;9.250;2023-10-19T14:40:19;16.60;99.90
67273;DHT22;54190;49.770;9.250;2023-10-19T14:42:48;16.60;99.90
67273;DHT22;54190;49.770;9.250;2023-10-19T14:45:16;16.60;99.90
67273;DHT22;54190;49.770;9.250;2023-10-19T14:47:49;16.60;99.90
67273;DHT22;54190;49.770;9.250;2023-10-19T14:50:17;16.60;99.90
67273;DHT22;54190;49.770;9.250;2023-10-19T14:52:48;16.60;99.90
67273;DHT22;54190;49.770;9.250;2023-10-19T14:55:14;16.60;99.90
67273;DHT22;54190;49.770;9.250;2023-10-19T14:57:42;16.60;99.90
67273;DHT22;54190;49.770;9.250;2023-10-19T15:00:11;16.60;99.90
67273;DHT22;54190;49.770;9.250;2023-10-19T15:02:51;16.60;99.90
67273;DHT22;54190;49.770;9.250;2023-10-19T15:05:18;16.60;99.90
67273;DHT22;54190;49.770;9.250;2023-10-19T15:07:45;16.60;99.90
67273;DHT22;54190;49.770;9.250;2023-10-19T15:10:12;16.60;99.90
67273;DHT22;54190;49.770;9.250;2023-10-19T15:12:39;16.50;99.90
67273;DHT22;54190;49.770;9.250;2023-10-19T15:15:06;16.40;99.90
67273;DHT22;54190;49.770;9.250;2023-10-19T15:17:32;16.40;99.90
67273;DHT22;54190;49.770;9.250;2023-10-19T15:19:57;16.40;99.90
67273;DHT22;54190;49.770;9.250;2023-10-19T15:22:24;16.40;99.90
67273;DHT22;54190;49.770;9.250;2023-10-19T15:24:52;16.40;99.90
67273;DHT22;54190;49.770;9.250;2023-10-19T15:27:18;16.40;99.90
67273;DHT22;54190;49.770;9.250;2023-10-19T15:29:44;16.40;99.90
67273;DHT22;54190;49.770;9.250;2023-10-19T15:32:10;16.40;99.90
67273;DHT22;54190;49.770;9.250;2023-10-19T15:34:35;16.30;99.90
67273;DHT22;54190;49.770;9.250;2023-10-19T15:37:01;16.30;99.90
67273;DHT22;54190;49.770;9.250;2023-10-19T15:39:27;16.20;99.90
67273;DHT22;54190;49.770;9.250;2023-10-19T15:41:53;16.20;99.90
67273;DHT22;54190;49.770;9.250;2023-10-19T15:44:19;16.20;99.90
67273;DHT22;54190;49.770;9.250;2023-10-19T15:46:44;16.20;99.90
67273;DHT22;54190;49.770;9.250;2023-10-19T15:49:13;16.10;99.90
67273;DHT22;54190;49.770;9.250;2023-10-19T15:51:39;16.10;99.90
67273;DHT22;54190;49.770;9.250;2023-10-19T15:54:06;16.10;99.90
67273;DHT22;54190;49.770;9.250;2023-10-19T15:56:32;16.10;99.90
67273;DHT22;54190;49.770;9.250;2023-10-19T15:58:59;16.00;99.90